Česky Dansk Deutsch English Español Suomi Français Magyar Italiano Nederlands norsk Polski Português svenska Türkçe

 

Het Weer

Colmar (Frankrijk)

13:00, 14 oktober 2009 (GMT)

NWNNE
WE
SWSSE
Home            
Colmar Bale-Mulhouse Belfort Lahr, CAN-AFB Strasbourg Luxeuil Grenchen Donaueschingen / Villingen Zurich-Kloten Les Eplatures Neuchatel Karlsruhe, Baden Wurttemberg Bern / Belp Nancy / Essey Messstetten Payerne Nancy / Ochey Besancon Konstanz Zweibrucken, Rheinland-Pfalz Metz-Nancy-Lorraine Saarbruecken / Ensheim Stuttgart-Echterdingen

Om een weerknop op uw website of weblog te plaatsen, copieer onderstaande code en plak die in uw pagina. In het eerste vakje staat HTML-code, in het tweede vakje UBB-code.


Add to Google

Details

Wind speed:4 bf, 12 kn, 6.2 m/s, 13.8 miles/h, 22.2 km/h
Wind direction:NNW, 340° - ENE, 060°
Het Weer:moderate
moderate
moderate
Temperature:9°C, 48°F
Dew-point:-3°C, 27°F
Atmospheric pressure:1027 hPa, 770.3 mmHg, 30.33 inHg, 1.014 atm
Relative humidity:42.6 %
METAR:LFSC 141300Z AUTO 01012KT 340V060 09/M03 Q1027

Snelkoppelingen

Actuele weersinformatie van de hele wereld. Voeg locaties toe met het plus (+) symbool. Deze snelkoppelingen kunnen worden toegevoegd aan Google.

Lid van de Technetium groep

website free tracking
StatCounter NetStat W3C Validator

29-06-2022 12:15:08
astro.technetium.be money.technetium.be phote.technetium.be tafeltennistafel.technetium.be www.ligfiets.net